Airfield :
LOGIN :

Register | Disclaimer

   EN    FR    IT 

 










Legend :    VFR   Marginal VFR   IFR   Intensive IFR   Very Intensive IFR
Visi :
Ceiling :
>= 8 km
>= 3000ft
5 to 8 km
1000 to 3000 ft
1500m to 5 km
500 to 1000 ft
800 to 1500m
200 to 500 ft
< 800m
< 200 ft
Symbols :   Thunderstorms  Fog  Heavy snow  Heavy precipitations  Wind > 20 kt
SIGMETs :     Misc.  Thunderstorms  Icing  Turbulence  Mountain Waves  Volcanic Ashes






- Airport Elevation : 1306 ft
- IATA code : ACH


LSZR - Alten Rhein

CURRENT METAR :
  • 281220Z 27008KT 9999 SCT040 BKN055 13/08 Q1017 NOSIG RMK I

EXPIRED METARs :
  • 281150Z 26005KT 230V290 9999 SCT040 BKN055 13/08 Q1017 NOSIG RMK I
  • 281120Z 10004KT 070V150 9999 FEW030 BKN067 13/10 Q1017 NOSIG RMK H
  • 281050Z 10004KT 070V150 9999 FEW030 BKN067 13/10 Q1017 NOSIG RMK H
  • 281020Z 10004KT 9999 FEW020 BKN045 08/07 Q1017 NOSIG RMK G
  • 280950Z 10004KT 9999 FEW020 BKN045 08/07 Q1017 NOSIG RMK G
  • 280920Z AUTO VRB02KT 9999 -RA FEW023 OVC036 08/07 Q1018

TAF TAF LSZR
Valid from the 28 at 12:00 until the 28 at 21:00 UTC


281125Z 2812/2821 VRB03KT 9999 FEW030 BKN060
TEMPO 2813/2817 SCT060
TEMPO 2818/2821 SHRA
ATIS : +41 71 858 51 66



MET'MAP, your aeronautical weather chart ! - Copyright ORBIFLY December 2007 - Disclaimer

ORBIFLY MET'MAP TEAM :

Programming & Development : Alexandra Zaïnal
Concept & original design : Baudouin d'Aumeries
Assistance for programming : Marc-Olivier Méhu
Technical & hardware support : Manuel Goepfert

Contact : metmap@orbifly.com




SOURCES & CREDITS :

   NOAA